
Distance (Route):
Temperature : 0°C
Humidity : 0%
Pressure : 0hPa| Receiver | Date | Latitude | Longitude | Direction | Speed | Altitude | Climb | Temperature | Humidity | Pressure | Voltage | Killtimer | Uptime | BKT | XDATA |
|---|---|---|---|---|---|---|---|---|---|---|---|---|---|---|---|
| DB0UT-7 | 2026-09-03 12:24:00 | 46.51255 | 3.53824 | 147° | 80km/h | 10614m | -3.6m/s | 0°C | 0% | 0hPa | 0V | 00:00:00 | 00:00:00 | 00:00:00 | |
| DB0ND-19 | 2026-09-03 12:23:31 | 46.52207 | 3.52830 | 138° | 86km/h | 10825m | -4.5m/s | -45.5°C | -1.0% | -1.0hPa | 0V | 00:00:00 | 00:00:00 | 00:00:00 | |
| DB0ND-19 | 2026-09-03 12:21:27 | 46.53993 | 3.50719 | 139° | 78km/h | 11219m | -3.4m/s | -49.2°C | -1.0% | -1.0hPa | 0V | 00:00:00 | 00:00:00 | 00:00:00 | |
| DB0ND-19 | 2026-09-03 12:20:56 | 46.54174 | 3.50493 | 138° | 78km/h | 11260m | -3.5m/s | -49.5°C | -1.0% | -1.0hPa | 0V | 00:00:00 | 00:00:00 | 00:00:00 | |
| DB0ND-19 | 2026-09-03 12:19:54 | 46.55131 | 3.49358 | 141° | 78km/h | 11470m | -3.6m/s | -51.7°C | -1.0% | -1.0hPa | 0V | 00:00:00 | 00:00:00 | 00:00:00 | |
| DB0UT-7 | 2026-09-03 12:19:21 | 46.55662 | 3.48778 | 145° | 84km/h | 11591m | -3.7m/s | 0°C | 0% | 0hPa | 0V | 00:00:00 | 00:00:00 | 00:00:00 | |
| DB0UT-7 | 2026-09-03 12:18:51 | 46.56181 | 3.48226 | 143° | 86km/h | 11702m | -3.7m/s | 0°C | 0% | 0hPa | 0V | 00:00:00 | 00:00:00 | 00:00:00 | |
| DB0ND-19 | 2026-09-03 12:18:21 | 46.56731 | 3.47635 | 143° | 88km/h | 11810m | -3.6m/s | -54.8°C | -1.0% | -1.0hPa | 0V | 00:00:00 | 00:00:00 | 00:00:00 | |
| DB0UT-7 | 2026-09-03 12:17:45 | 46.57378 | 3.46959 | 144° | 88km/h | 11984m | -3.6m/s | 0°C | 0% | 0hPa | 0V | 00:00:00 | 00:00:00 | 00:00:00 | |
| DB0UT-7 | 2026-09-03 12:17:06 | 46.58087 | 3.46247 | 147° | 82km/h | 12076m | -3.7m/s | 0°C | 0% | 0hPa | 0V | 00:00:00 | 00:00:00 | 00:00:00 | |
| DB0ND-19 | 2026-09-03 12:16:48 | 46.58444 | 3.45914 | 146° | 89km/h | 12142m | -3.4m/s | -57.6°C | -1.0% | -1.0hPa | 0V | 00:00:00 | 00:00:00 | 00:00:00 | |
| DB0ND-19 | 2026-09-03 12:16:17 | 46.58995 | 3.45317 | 139° | 86km/h | 12248m | -4.3m/s | -58.0°C | -1.0% | -1.0hPa | 0V | 00:00:00 | 00:00:00 | 00:00:00 | |
| DB0UT-7 | 2026-09-03 12:15:34 | 46.59675 | 3.44486 | 139° | 80km/h | 12419m | -3.1m/s | 0°C | 0% | 0hPa | 0V | 00:00:00 | 00:00:00 | 00:00:00 | |
| DB0ND-19 | 2026-09-03 12:15:16 | 46.59981 | 3.44048 | 132° | 78km/h | 12477m | -3.3m/s | -60.3°C | -1.0% | -1.0hPa | 0V | 00:00:00 | 00:00:00 | 00:00:00 | |
| DB0ND-19 | 2026-09-03 12:14:44 | 46.60371 | 3.43391 | 129° | 73km/h | 12586m | -3.6m/s | -61.2°C | -1.0% | -1.0hPa | 0V | 00:00:00 | 00:00:00 | 00:00:00 | |
| DB0UT-7 | 2026-09-03 12:14:21 | 46.60638 | 3.42919 | 130° | 77km/h | 12669m | -3.5m/s | 0°C | 0% | 0hPa | 0V | 00:00:00 | 00:00:00 | 00:00:00 | |
| DB0ND-19 | 2026-09-03 12:14:13 | 46.60749 | 3.42724 | 129° | 75km/h | 12698m | -3.6m/s | -62.0°C | -1.0% | -1.0hPa | 0V | 00:00:00 | 00:00:00 | 00:00:00 | |
| DB0UT-7 | 2026-09-03 12:13:50 | 46.61017 | 3.42236 | 129° | 89km/h | 12782m | -3.7m/s | 0°C | 0% | 0hPa | 0V | 00:00:00 | 00:00:00 | 00:00:00 | |
| DB0ND-19 | 2026-09-03 12:13:42 | 46.61130 | 3.42033 | 129° | 80km/h | 12812m | -3.6m/s | -62.9°C | -1.0% | -1.0hPa | 0V | 00:00:00 | 00:00:00 | 00:00:00 | |
| DB0ND-19 | 2026-09-03 12:13:11 | 46.61545 | 3.41299 | 130° | 82km/h | 12926m | -3.7m/s | -63.9°C | -1.0% | -1.0hPa | 0V | 00:00:00 | 00:00:00 | 00:00:00 | |
| DB0UT-7 | 2026-09-03 12:12:21 | 46.62262 | 3.40081 | 132° | 111km/h | 13117m | -4.1m/s | 0°C | 0% | 0hPa | 0V | 00:00:00 | 00:00:00 | 00:00:00 | |
| DB0ND-19 | 2026-09-03 12:12:09 | 46.62532 | 3.39662 | 133° | 100km/h | 13177m | -4.1m/s | -65.1°C | -1.0% | -1.0hPa | 0V | 00:00:00 | 00:00:00 | 00:00:00 | |
| DB0ND-19 | 2026-09-03 12:11:38 | 46.63028 | 3.38868 | 129° | 111km/h | 13290m | -4.2m/s | -64.2°C | -1.0% | -1.0hPa | 0V | 00:00:00 | 00:00:00 | 00:00:00 | |
| DB0ND-19 | 2026-09-03 12:11:07 | 46.63612 | 3.37863 | 130° | 117km/h | 13417m | -4.2m/s | -64.5°C | -1.0% | -1.0hPa | 0V | 00:00:00 | 00:00:00 | 00:00:00 | |
| DB0UT-7 | 2026-09-03 12:10:36 | 46.64198 | 3.36926 | 133° | 97km/h | 13547m | -4.1m/s | 0°C | 0% | 0hPa | 0V | 00:00:00 | 00:00:00 | 00:00:00 | |
| DB0ND-19 | 2026-09-03 12:10:35 | 46.64217 | 3.36895 | 131° | 111km/h | 13547m | -4.1m/s | -64.6°C | -1.0% | -1.0hPa | 0V | 00:00:00 | 00:00:00 | 00:00:00 | |
| DB0ND-19 | 2026-09-03 12:10:05 | 46.64806 | 3.35941 | 131° | 106km/h | 13683m | -4.4m/s | -64.0°C | -1.0% | -1.0hPa | 0V | 00:00:00 | 00:00:00 | 00:00:00 | |
| DB0ND-19 | 2026-09-03 12:09:34 | 46.65297 | 3.35079 | 129° | 99km/h | 13814m | -4.2m/s | -63.4°C | -1.0% | -1.0hPa | 0V | 00:00:00 | 00:00:00 | 00:00:00 | |
| DB0UT-7 | 2026-09-03 12:09:02 | 46.65761 | 3.34233 | 124° | 97km/h | 13956m | -4.7m/s | 0°C | 0% | 0hPa | 0V | 00:00:00 | 00:00:00 | 00:00:00 | |
| DB0UT-7 | 2026-09-03 12:08:32 | 46.66144 | 3.33343 | 122° | 102km/h | 14100m | -5.5m/s | 0°C | 0% | 0hPa | 0V | 00:00:00 | 00:00:00 | 00:00:00 | |
| DB0ND-19 | 2026-09-03 12:08:31 | 46.66172 | 3.33279 | 121° | 102km/h | 14105m | -5.5m/s | -63.4°C | -1.0% | -1.0hPa | 0V | 00:00:00 | 00:00:00 | 00:00:00 | |
| DB0ND-19 | 2026-09-03 12:08:00 | 46.66625 | 3.32328 | 128° | 97km/h | 14260m | -4.8m/s | -62.9°C | -1.0% | -1.0hPa | 0V | 00:00:00 | 00:00:00 | 00:00:00 | |
| DB0UT-7 | 2026-09-03 12:07:26 | 46.67142 | 3.31432 | 129° | 77km/h | 14424m | -4.1m/s | 0°C | 0% | 0hPa | 0V | 00:00:00 | 00:00:00 | 00:00:00 | |
| DB0UT-7 | 2026-09-03 12:06:56 | 46.67521 | 3.30799 | 138° | 66km/h | 14607m | -5.3m/s | 0°C | 0% | 0hPa | 0V | 00:00:00 | 00:00:00 | 00:00:00 | |
| DB0UT-7 | 2026-09-03 12:06:13 | 46.67966 | 3.29842 | 116° | 84km/h | 14816m | -5.4m/s | 0°C | 0% | 0hPa | 0V | 00:00:00 | 00:00:00 | 00:00:00 | |
| DB0UT-7 | 2026-09-03 12:05:42 | 46.68180 | 3.29013 | 108° | 68km/h | 15000m | -5.7m/s | 0°C | 0% | 0hPa | 0V | 00:00:00 | 00:00:00 | 00:00:00 | |
| DB0UT-7 | 2026-09-03 12:05:12 | 46.68437 | 3.28369 | 123° | 64km/h | 15171m | -5.1m/s | 0°C | 0% | 0hPa | 0V | 00:00:00 | 00:00:00 | 00:00:00 | |
| DB0ND-19 | 2026-09-03 12:04:54 | 46.68588 | 3.27979 | 117° | 66km/h | 15258m | -5.0m/s | -61.7°C | -1.0% | -1.0hPa | 0V | 00:00:00 | 00:00:00 | 00:00:00 | |
| DB0UT-7 | 2026-09-03 12:04:22 | 46.68799 | 3.27278 | 110° | 77km/h | 15462m | -5.4m/s | 0°C | 0% | 0hPa | 0V | 00:00:00 | 00:00:00 | 00:00:00 | |
| DB0UT-7 | 2026-09-03 12:03:43 | 46.69151 | 3.26323 | 120° | 75km/h | 15616m | -4.1m/s | 0°C | 0% | 0hPa | 0V | 00:00:00 | 00:00:00 | 00:00:00 | |
| DB0UT-7 | 2026-09-03 12:03:13 | 46.69533 | 3.25711 | 131° | 55km/h | 15759m | -5.1m/s | 0°C | 0% | 0hPa | 0V | 00:00:00 | 00:00:00 | 00:00:00 | |
| DB0UT-7 | 2026-09-03 12:02:43 | 46.69797 | 3.25256 | 130° | 51km/h | 15915m | -4.6m/s | 0°C | 0% | 0hPa | 0V | 00:00:00 | 00:00:00 | 00:00:00 | |
| DB0UT-7 | 2026-09-03 12:02:13 | 46.69946 | 3.24751 | 107° | 60km/h | 16071m | -4.4m/s | 0°C | 0% | 0hPa | 0V | 00:00:00 | 00:00:00 | 00:00:00 | |
| DB0UT-7 | 2026-09-03 12:01:43 | 46.70112 | 3.24141 | 118° | 47km/h | 16226m | -6.2m/s | 0°C | 0% | 0hPa | 0V | 00:00:00 | 00:00:00 | 00:00:00 | |
| DB0ND-19 | 2026-09-03 12:01:17 | 46.70235 | 3.23610 | 118° | 46km/h | 16379m | -6.0m/s | -59.7°C | -1.0% | -1.0hPa | 0V | 00:00:00 | 00:00:00 | 00:00:00 | |
| DB0UT-7 | 2026-09-03 12:00:59 | 46.70307 | 3.23321 | 110° | 55km/h | 16474m | -5.1m/s | 0°C | 0% | 0hPa | 0V | 00:00:00 | 00:00:00 | 00:00:00 | |
| DB0UT-7 | 2026-09-03 12:00:29 | 46.70438 | 3.22758 | 123° | 53km/h | 16646m | -6.2m/s | 0°C | 0% | 0hPa | 0V | 00:00:00 | 00:00:00 | 00:00:00 | |
| DB0ND-19 | 2026-09-03 12:00:15 | 46.70505 | 3.22492 | 88° | 40km/h | 16729m | -4.8m/s | -59.4°C | -1.0% | -1.0hPa | 0V | 00:00:00 | 00:00:00 | 00:00:00 | |
| DB0UT-7 | 2026-09-03 11:59:57 | 46.70553 | 3.22194 | 86° | 66km/h | 16867m | -6.3m/s | 0°C | 0% | 0hPa | 0V | 00:00:00 | 00:00:00 | 00:00:00 | |
| DB0ND-19 | 2026-09-03 11:59:44 | 46.70650 | 3.21942 | 85° | 42km/h | 16925m | -6.8m/s | -59.0°C | -1.0% | -1.0hPa | 0V | 00:00:00 | 00:00:00 | 00:00:00 | |
| DB0UT-7 | 2026-09-03 11:59:09 | 46.70869 | 3.21281 | 115° | 55km/h | 17156m | -6.7m/s | 0°C | 0% | 0hPa | 0V | 00:00:00 | 00:00:00 | 00:00:00 | |
| DB0UT-7 | 2026-09-03 11:58:39 | 46.71108 | 3.20786 | 141° | 53km/h | 17343m | -7.8m/s | 0°C | 0% | 0hPa | 0V | 00:00:00 | 00:00:00 | 00:00:00 | |
| DB0UT-7 | 2026-09-03 11:58:08 | 46.71423 | 3.20412 | 161° | 40km/h | 17519m | -6.4m/s | 0°C | 0% | 0hPa | 0V | 00:00:00 | 00:00:00 | 00:00:00 | |
| DB0UT-7 | 2026-09-03 11:57:38 | 46.71722 | 3.20214 | 151° | 35km/h | 17697m | -5.9m/s | 0°C | 0% | 0hPa | 0V | 00:00:00 | 00:00:00 | 00:00:00 | |
| DB0UT-7 | 2026-09-03 11:57:07 | 46.71936 | 3.19987 | 145° | 29km/h | 17899m | -7.6m/s | 0°C | 0% | 0hPa | 0V | 00:00:00 | 00:00:00 | 00:00:00 | |
| DB0UT-7 | 2026-09-03 11:56:37 | 46.72023 | 3.19702 | 107° | 27km/h | 18094m | -6.0m/s | 0°C | 0% | 0hPa | 0V | 00:00:00 | 00:00:00 | 00:00:00 | |
| DB0ND-19 | 2026-09-03 11:56:07 | 46.72131 | 3.19409 | 133° | 35km/h | 18301m | -5.7m/s | -58.1°C | -1.0% | -1.0hPa | 0V | 00:00:00 | 00:00:00 | 00:00:00 | |
| DB0UT-7 | 2026-09-03 11:55:37 | 46.72282 | 3.19277 | 205° | 18km/h | 18492m | -7.3m/s | 0°C | 0% | 0hPa | 0V | 00:00:00 | 00:00:00 | 00:00:00 | |
| DB0ND-19 | 2026-09-03 11:55:36 | 46.72287 | 3.19280 | 179° | 5km/h | 18499m | -6.7m/s | -57.8°C | -1.0% | -1.0hPa | 0V | 00:00:00 | 00:00:00 | 00:00:00 | |
| DB0UT-7 | 2026-09-03 11:55:07 | 46.72339 | 3.19120 | 94° | 15km/h | 18628m | 4.7m/s | 0°C | 0% | 0hPa | 0V | 00:00:00 | 00:00:00 | 00:00:00 | |
| DB0ND-19 | 2026-09-03 11:55:05 | 46.72344 | 3.19085 | 118° | 22km/h | 18614m | 4.2m/s | -58.2°C | -1.0% | -1.0hPa | 0V | 00:00:00 | 00:00:00 | 00:00:00 | |
| DB0UT-7 | 2026-09-03 11:54:37 | 46.72396 | 3.18986 | 144° | 20km/h | 18486m | 5.5m/s | 0°C | 0% | 0hPa | 0V | 00:00:00 | 00:00:00 | 00:00:00 | |
| DB0ND-19 | 2026-09-03 11:54:34 | 46.72406 | 3.18977 | 175° | 13km/h | 18470m | 5.9m/s | -57.8°C | -1.0% | -1.0hPa | 0V | 00:00:00 | 00:00:00 | 00:00:00 | |
| DB0UT-7 | 2026-09-03 11:54:07 | 46.72540 | 3.18891 | 148° | 31km/h | 18336m | 5.8m/s | 0°C | 0% | 0hPa | 0V | 00:00:00 | 00:00:00 | 00:00:00 | |
| DB0ND-19 | 2026-09-03 11:54:03 | 46.72586 | 3.18829 | 131° | 33km/h | 18306m | 4.4m/s | -58.2°C | -1.0% | -1.0hPa | 0V | 00:00:00 | 00:00:00 | 00:00:00 | |
| DB0UT-7 | 2026-09-03 11:53:37 | 46.72703 | 3.18647 | 116° | 31km/h | 18192m | 5.6m/s | 0°C | 0% | 0hPa | 0V | 00:00:00 | 00:00:00 | 00:00:00 | |
| DB0ND-19 | 2026-09-03 11:53:32 | 46.72727 | 3.18567 | 118° | 24km/h | 18163m | 5.0m/s | -58.2°C | -1.0% | -1.0hPa | 0V | 00:00:00 | 00:00:00 | 00:00:00 | |
| DB0UT-7 | 2026-09-03 11:53:07 | 46.72775 | 3.18326 | 94° | 31km/h | 18050m | 5.7m/s | 0°C | 0% | 0hPa | 0V | 00:00:00 | 00:00:00 | 00:00:00 | |
| DB0ND-19 | 2026-09-03 11:53:00 | 46.72783 | 3.18251 | 113° | 24km/h | 18014m | 4.8m/s | -58.5°C | -1.0% | -1.0hPa | 0V | 00:00:00 | 00:00:00 | 00:00:00 | |
| DB0ND-19 | 2026-09-03 11:52:29 | 46.72922 | 3.17991 | 131° | 37km/h | 17866m | 5.5m/s | -60.2°C | -1.0% | -1.0hPa | 0V | 00:00:00 | 00:00:00 | 00:00:00 | |
| DB0UT-7 | 2026-09-03 11:52:09 | 46.73051 | 3.17836 | 165° | 38km/h | 17769m | 3.5m/s | 0°C | 0% | 0hPa | 0V | 00:00:00 | 00:00:00 | 00:00:00 | |
| DB0ND-19 | 2026-09-03 11:51:58 | 46.73144 | 3.17771 | 165° | 37km/h | 17716m | 5.5m/s | -61.0°C | -1.0% | -1.0hPa | 0V | 00:00:00 | 00:00:00 | 00:00:00 | |
| DB0UT-7 | 2026-09-03 11:51:39 | 46.73311 | 3.17667 | 143° | 47km/h | 17628m | 5.2m/s | 0°C | 0% | 0hPa | 0V | 00:00:00 | 00:00:00 | 00:00:00 | |
| DB0UT-7 | 2026-09-03 11:51:09 | 46.73628 | 3.17428 | 144° | 49km/h | 17483m | 6.0m/s | 0°C | 0% | 0hPa | 0V | 00:00:00 | 00:00:00 | 00:00:00 | |
| DB0UT-7 | 2026-09-03 11:50:39 | 46.73903 | 3.17060 | 140° | 55km/h | 17335m | 5.1m/s | 0°C | 0% | 0hPa | 0V | 00:00:00 | 00:00:00 | 00:00:00 | |
| DB0UT-7 | 2026-09-03 11:50:09 | 46.74158 | 3.16582 | 121° | 58km/h | 17190m | 4.3m/s | 0°C | 0% | 0hPa | 0V | 00:00:00 | 00:00:00 | 00:00:00 | |
| DB0UT-7 | 2026-09-03 11:49:39 | 46.74341 | 3.16001 | 121° | 55km/h | 17020m | 4.1m/s | 0°C | 0% | 0hPa | 0V | 00:00:00 | 00:00:00 | 00:00:00 | |
| DB0UT-7 | 2026-09-03 11:49:09 | 46.74526 | 3.15453 | 113° | 53km/h | 16902m | 4.0m/s | 0°C | 0% | 0hPa | 0V | 00:00:00 | 00:00:00 | 00:00:00 | |
| DB0ND-19 | 2026-09-03 11:48:52 | 46.74626 | 3.15134 | 112° | 49km/h | 16823m | 3.5m/s | -59.4°C | -1.0% | -1.0hPa | 0V | 00:00:00 | 00:00:00 | 00:00:00 | |
| DB0ND-19 | 2026-09-03 11:48:21 | 46.74761 | 3.14567 | 108° | 55km/h | 16683m | 5.0m/s | -60.0°C | -1.0% | -1.0hPa | 0V | 00:00:00 | 00:00:00 | 00:00:00 | |
| DB0ND-19 | 2026-09-03 11:47:50 | 46.74900 | 3.14009 | 108° | 49km/h | 16543m | 4.3m/s | -60.4°C | -1.0% | -1.0hPa | 0V | 00:00:00 | 00:00:00 | 00:00:00 | |
| DB0UT-7 | 2026-09-03 11:47:30 | 46.74977 | 3.13668 | 113° | 53km/h | 16453m | 5.4m/s | 0°C | 0% | 0hPa | 0V | 00:00:00 | 00:00:00 | 00:00:00 | |
| DB0ND-19 | 2026-09-03 11:47:19 | 46.75051 | 3.13442 | 113° | 51km/h | 16399m | 5.2m/s | -60.1°C | -1.0% | -1.0hPa | 0V | 00:00:00 | 00:00:00 | 00:00:00 | |
| DB0UT-7 | 2026-09-03 11:46:49 | 46.75178 | 3.12923 | 111° | 57km/h | 16264m | 4.6m/s | 0°C | 0% | 0hPa | 0V | 00:00:00 | 00:00:00 | 00:00:00 | |
| DB0ND-19 | 2026-09-03 11:46:48 | 46.75186 | 3.12885 | 104° | 55km/h | 16264m | 4.6m/s | -61.3°C | -1.0% | -1.0hPa | 0V | 00:00:00 | 00:00:00 | 00:00:00 | |
| DB0UT-7 | 2026-09-03 11:46:19 | 46.75334 | 3.12331 | 113° | 57km/h | 16129m | 5.6m/s | 0°C | 0% | 0hPa | 0V | 00:00:00 | 00:00:00 | 00:00:00 | |
| DB0ND-19 | 2026-09-03 11:46:17 | 46.75352 | 3.12267 | 110° | 60km/h | 16119m | 5.1m/s | -62.0°C | -1.0% | -1.0hPa | 0V | 00:00:00 | 00:00:00 | 00:00:00 | |
| DB0UT-7 | 2026-09-03 11:45:49 | 46.75464 | 3.11734 | 108° | 49km/h | 15985m | 4.5m/s | 0°C | 0% | 0hPa | 0V | 00:00:00 | 00:00:00 | 00:00:00 | |
| DB0ND-19 | 2026-09-03 11:45:46 | 46.75480 | 3.11667 | 110° | 49km/h | 15969m | 5.1m/s | -61.7°C | -1.0% | -1.0hPa | 0V | 00:00:00 | 00:00:00 | 00:00:00 | |
| DB0UT-7 | 2026-09-03 11:45:19 | 46.75644 | 3.11273 | 127° | 64km/h | 15837m | 4.5m/s | 0°C | 0% | 0hPa | 0V | 00:00:00 | 00:00:00 | 00:00:00 | |
| DB0ND-19 | 2026-09-03 11:45:16 | 46.75690 | 3.11194 | 137° | 57km/h | 15815m | 5.8m/s | -62.3°C | -1.0% | -1.0hPa | 0V | 00:00:00 | 00:00:00 | 00:00:00 | |
| DB0UT-7 | 2026-09-03 11:44:49 | 46.75987 | 3.10767 | 137° | 80km/h | 15697m | 4.8m/s | 0°C | 0% | 0hPa | 0V | 00:00:00 | 00:00:00 | 00:00:00 | |
| DB0ND-19 | 2026-09-03 11:44:44 | 46.76068 | 3.10621 | 126° | 77km/h | 15665m | 5.2m/s | -62.9°C | -1.0% | -1.0hPa | 0V | 00:00:00 | 00:00:00 | 00:00:00 | |
| DB0UT-7 | 2026-09-03 11:44:19 | 46.76341 | 3.10049 | 123° | 77km/h | 15553m | 5.4m/s | 0°C | 0% | 0hPa | 0V | 00:00:00 | 00:00:00 | 00:00:00 | |
| DB0ND-19 | 2026-09-03 11:44:13 | 46.76414 | 3.09862 | 114° | 80km/h | 15525m | 3.8m/s | -62.8°C | -1.0% | -1.0hPa | 0V | 00:00:00 | 00:00:00 | 00:00:00 | |
| DB0UT-7 | 2026-09-03 11:43:49 | 46.76603 | 3.09278 | 114° | 71km/h | 15414m | 3.9m/s | 0°C | 0% | 0hPa | 0V | 00:00:00 | 00:00:00 | 00:00:00 | |
| DB0ND-19 | 2026-09-03 11:43:42 | 46.76658 | 3.09078 | 109° | 69km/h | 15382m | 6.0m/s | -61.8°C | -1.0% | -1.0hPa | 0V | 00:00:00 | 00:00:00 | 00:00:00 | |
| DB0UT-7 | 2026-09-03 11:43:19 | 46.76804 | 3.08559 | 111° | 66km/h | 15276m | 3.6m/s | 0°C | 0% | 0hPa | 0V | 00:00:00 | 00:00:00 | 00:00:00 | |
| DB0ND-19 | 2026-09-03 11:43:11 | 46.76870 | 3.08335 | 120° | 64km/h | 15235m | 5.1m/s | -61.6°C | -1.0% | -1.0hPa | 0V | 00:00:00 | 00:00:00 | 00:00:00 | |
| DB0UT-7 | 2026-09-03 11:42:49 | 46.77024 | 3.07904 | 117° | 69km/h | 15120m | 4.8m/s | 0°C | 0% | 0hPa | 0V | 00:00:00 | 00:00:00 | 00:00:00 | |
| DB0UT-7 | 2026-09-03 11:42:18 | 46.77277 | 3.07221 | 116° | 75km/h | 15006m | 4.2m/s | 0°C | 0% | 0hPa | 0V | 00:00:00 | 00:00:00 | 00:00:00 | |
| DB0ND-19 | 2026-09-03 11:42:09 | 46.77368 | 3.06944 | 111° | 75km/h | 14960m | 4.1m/s | -63.1°C | -1.0% | -1.0hPa | 0V | 00:00:00 | 00:00:00 | 00:00:00 | |
| DB0UT-7 | 2026-09-03 11:41:48 | 46.77491 | 3.06456 | 113° | 75km/h | 14871m | 3.4m/s | 0°C | 0% | 0hPa | 0V | 00:00:00 | 00:00:00 | 00:00:00 | |
| DB0ND-19 | 2026-09-03 11:41:38 | 46.77566 | 3.06175 | 112° | 75km/h | 14824m | 5.5m/s | -62.8°C | -1.0% | -1.0hPa | 0V | 00:00:00 | 00:00:00 | 00:00:00 | |
| DB0UT-7 | 2026-09-03 11:41:17 | 46.77726 | 3.05680 | 115° | 73km/h | 14728m | 3.0m/s | 0°C | 0% | 0hPa | 0V | 00:00:00 | 00:00:00 | 00:00:00 | |
| DB0ND-19 | 2026-09-03 11:41:07 | 46.77815 | 3.05420 | 119° | 71km/h | 14680m | 3.2m/s | -61.9°C | -1.0% | -1.0hPa | 0V | 00:00:00 | 00:00:00 | 00:00:00 | |
| DB0UT-7 | 2026-09-03 11:40:44 | 46.78017 | 3.04942 | 124° | 80km/h | 14572m | 5.1m/s | 0°C | 0% | 0hPa | 0V | 00:00:00 | 00:00:00 | 00:00:00 | |
| DB0ND-19 | 2026-09-03 11:40:36 | 46.78111 | 3.04743 | 126° | 73km/h | 14539m | 3.4m/s | -61.8°C | -1.0% | -1.0hPa | 0V | 00:00:00 | 00:00:00 | 00:00:00 | |
| DB0UT-7 | 2026-09-03 11:40:12 | 46.78412 | 3.04196 | 131° | 97km/h | 14421m | 4.8m/s | 0°C | 0% | 0hPa | 0V | 00:00:00 | 00:00:00 | 00:00:00 | |
| DB0ND-19 | 2026-09-03 11:40:05 | 46.78533 | 3.03993 | 128° | 97km/h | 14393m | 5.3m/s | -62.2°C | -1.0% | -1.0hPa | 0V | 00:00:00 | 00:00:00 | 00:00:00 | |
| DB0UT-7 | 2026-09-03 11:39:41 | 46.78884 | 3.03345 | 131° | 100km/h | 14283m | 3.5m/s | 0°C | 0% | 0hPa | 0V | 00:00:00 | 00:00:00 | 00:00:00 | |
| DB0ND-19 | 2026-09-03 11:39:33 | 46.79022 | 3.03085 | 128° | 95km/h | 14247m | 4.9m/s | -62.6°C | -1.0% | -1.0hPa | 0V | 00:00:00 | 00:00:00 | 00:00:00 | |
| DB0UT-7 | 2026-09-03 11:39:11 | 46.79331 | 3.02452 | 123° | 104km/h | 14149m | 4.8m/s | 0°C | 0% | 0hPa | 0V | 00:00:00 | 00:00:00 | 00:00:00 | |
| DB0ND-19 | 2026-09-03 11:39:02 | 46.79466 | 3.02129 | 121° | 102km/h | 14103m | 5.1m/s | -62.8°C | -1.0% | -1.0hPa | 0V | 00:00:00 | 00:00:00 | 00:00:00 | |
| DB0UT-7 | 2026-09-03 11:38:41 | 46.79743 | 3.01476 | 122° | 97km/h | 14007m | 5.4m/s | 0°C | 0% | 0hPa | 0V | 00:00:00 | 00:00:00 | 00:00:00 | |
| DB0ND-19 | 2026-09-03 11:38:32 | 46.79883 | 3.01128 | 118° | 99km/h | 13961m | 4.3m/s | -62.4°C | -1.0% | -1.0hPa | 0V | 00:00:00 | 00:00:00 | 00:00:00 | |
| DB0UT-7 | 2026-09-03 11:38:11 | 46.80113 | 3.00563 | 123° | 99km/h | 13870m | 5.0m/s | 0°C | 0% | 0hPa | 0V | 00:00:00 | 00:00:00 | 00:00:00 | |
| DB0ND-19 | 2026-09-03 11:38:00 | 46.80273 | 3.00235 | 129° | 91km/h | 13826m | 3.6m/s | -62.9°C | -1.0% | -1.0hPa | 0V | 00:00:00 | 00:00:00 | 00:00:00 | |
| DB0UT-7 | 2026-09-03 11:37:37 | 46.80614 | 2.99595 | 128° | 108km/h | 13723m | 5.2m/s | 0°C | 0% | 0hPa | 0V | 00:00:00 | 00:00:00 | 00:00:00 | |
| DB0ND-19 | 2026-09-03 11:37:29 | 46.80776 | 2.99305 | 130° | 102km/h | 13683m | 3.6m/s | -63.7°C | -1.0% | -1.0hPa | 0V | 00:00:00 | 00:00:00 | 00:00:00 | |
| DB0UT-7 | 2026-09-03 11:37:07 | 46.81138 | 2.98689 | 131° | 115km/h | 13590m | 3.9m/s | 0°C | 0% | 0hPa | 0V | 00:00:00 | 00:00:00 | 00:00:00 | |
| DB0ND-19 | 2026-09-03 11:36:58 | 46.81328 | 2.98377 | 131° | 113km/h | 13553m | 4.1m/s | -64.0°C | -1.0% | -1.0hPa | 0V | 00:00:00 | 00:00:00 | 00:00:00 | |
| DB0UT-7 | 2026-09-03 11:36:37 | 46.81729 | 2.97751 | 133° | 119km/h | 13452m | 3.1m/s | 0°C | 0% | 0hPa | 0V | 00:00:00 | 00:00:00 | 00:00:00 | |
| DB0ND-19 | 2026-09-03 11:36:27 | 46.81953 | 2.97379 | 128° | 122km/h | 13428m | 3.3m/s | -64.4°C | -1.0% | -1.0hPa | 0V | 00:00:00 | 00:00:00 | 00:00:00 | |
| DB0UT-7 | 2026-09-03 11:36:06 | 46.82329 | 2.96705 | 127° | 110km/h | 13333m | 5.7m/s | 0°C | 0% | 0hPa | 0V | 00:00:00 | 00:00:00 | 00:00:00 | |
| DB0ND-19 | 2026-09-03 11:35:56 | 46.82573 | 2.96224 | 126° | 115km/h | 13276m | 5.0m/s | -63.9°C | -1.0% | -1.0hPa | 0V | 00:00:00 | 00:00:00 | 00:00:00 | |
| DB0ND-19 | 2026-09-03 11:35:26 | 46.83053 | 2.95296 | 129° | 108km/h | 13157m | 3.5m/s | -64.8°C | -1.0% | -1.0hPa | 0V | 00:00:00 | 00:00:00 | 00:00:00 | |
| DB0UT-7 | 2026-09-03 11:34:56 | 46.83499 | 2.94512 | 130° | 88km/h | 13036m | 3.9m/s | 0°C | 0% | 0hPa | 0V | 00:00:00 | 00:00:00 | 00:00:00 | |
| DB0ND-19 | 2026-09-03 11:34:54 | 46.83559 | 2.94407 | 127° | 93km/h | 13023m | 2.7m/s | -64.8°C | -1.0% | -1.0hPa | 0V | 00:00:00 | 00:00:00 | 00:00:00 | |
| DB0ND-19 | 2026-09-03 11:34:23 | 46.83993 | 2.93659 | 131° | 84km/h | 12877m | 4.3m/s | -63.7°C | -1.0% | -1.0hPa | 0V | 00:00:00 | 00:00:00 | 00:00:00 | |
| DB0UT-7 | 2026-09-03 11:33:45 | 46.84503 | 2.92802 | 131° | 78km/h | 12678m | 4.1m/s | 0°C | 0% | 0hPa | 0V | 00:00:00 | 00:00:00 | 00:00:00 | |
| DB0UT-7 | 2026-09-03 11:33:13 | 46.84917 | 2.92067 | 132° | 78km/h | 12507m | 5.8m/s | 0°C | 0% | 0hPa | 0V | 00:00:00 | 00:00:00 | 00:00:00 | |
| DB0UT-7 | 2026-09-03 11:32:43 | 46.85288 | 2.91395 | 128° | 97km/h | 12358m | 4.6m/s | 0°C | 0% | 0hPa | 0V | 00:00:00 | 00:00:00 | 00:00:00 | |
| DB0UT-7 | 2026-09-03 11:31:35 | 46.86376 | 2.89917 | 143° | 95km/h | 11962m | 3.2m/s | 0°C | 0% | 0hPa | 0V | 00:00:00 | 00:00:00 | 00:00:00 | |
| DB0UT-7 | 2026-09-03 11:31:05 | 46.86928 | 2.89258 | 141° | 88km/h | 11888m | 1.8m/s | 0°C | 0% | 0hPa | 0V | 00:00:00 | 00:00:00 | 00:00:00 | |
| DB0UT-7 | 2026-09-03 11:30:23 | 46.87649 | 2.88383 | 140° | 84km/h | 11744m | 2.2m/s | 0°C | 0% | 0hPa | 0V | 00:00:00 | 00:00:00 | 00:00:00 | |
| DB0UT-7 | 2026-09-03 11:29:30 | 46.88492 | 2.87292 | 136° | 80km/h | 11537m | 4.4m/s | 0°C | 0% | 0hPa | 0V | 00:00:00 | 00:00:00 | 00:00:00 | |
| DB0UT-7 | 2026-09-03 11:29:00 | 46.88945 | 2.86684 | 137° | 80km/h | 11383m | 4.8m/s | 0°C | 0% | 0hPa | 0V | 00:00:00 | 00:00:00 | 00:00:00 | |
| DB0UT-7 | 2026-09-03 11:28:30 | 46.89397 | 2.86081 | 137° | 82km/h | 11248m | 5.0m/s | 0°C | 0% | 0hPa | 0V | 00:00:00 | 00:00:00 | 00:00:00 | |
| DB0UT-7 | 2026-09-03 11:28:00 | 46.89854 | 2.85470 | 140° | 84km/h | 11155m | 5.3m/s | 0°C | 0% | 0hPa | 0V | 00:00:00 | 00:00:00 | 00:00:00 | |
| DB0UT-7 | 2026-09-03 11:27:30 | 46.90334 | 2.84848 | 140° | 84km/h | 11025m | 4.8m/s | 0°C | 0% | 0hPa | 0V | 00:00:00 | 00:00:00 | 00:00:00 | |
| DB0UT-7 | 2026-09-03 11:26:59 | 46.90834 | 2.84212 | 137° | 86km/h | 10899m | 4.7m/s | 0°C | 0% | 0hPa | 0V | 00:00:00 | 00:00:00 | 00:00:00 | |
| DB0UT-7 | 2026-09-03 11:26:29 | 46.91328 | 2.83599 | 143° | 82km/h | 10777m | 5.2m/s | 0°C | 0% | 0hPa | 0V | 00:00:00 | 00:00:00 | 00:00:00 | |
| DB0UT-7 | 2026-09-03 11:25:59 | 46.91832 | 2.83050 | 143° | 84km/h | 10645m | 4.9m/s | 0°C | 0% | 0hPa | 0V | 00:00:00 | 00:00:00 | 00:00:00 | |
| DB0UT-7 | 2026-09-03 11:25:27 | 46.92381 | 2.82458 | 144° | 80km/h | 10470m | 4.5m/s | 0°C | 0% | 0hPa | 0V | 00:00:00 | 00:00:00 | 00:00:00 | |
| DB0UT-7 | 2026-09-03 11:23:38 | 46.94075 | 2.80355 | 138° | 78km/h | 10055m | 3.0m/s | 0°C | 0% | 0hPa | 0V | 00:00:00 | 00:00:00 | 00:00:00 | |
| DB0UT-7 | 2026-09-03 11:23:05 | 46.94552 | 2.79682 | 135° | 77km/h | 9903m | 5.5m/s | 0°C | 0% | 0hPa | 0V | 00:00:00 | 00:00:00 | 00:00:00 |